Time;durP1;ratioP1;P1;durP2;ratioP2;P2;SDS_P1;SDS_P2;PMS_P1;PMS_P2;Temp;Humidity;BMP_temperature;BMP_pressure;BME280_temperature;BME280_humidity;BME280_pressure;Samples;Min_cycle;Max_cycle;Signal;HPM_P1;HPM_P2
2022/11/30 00:00:47;;;;;;;4.65;2.55;;;;;;;7.76;81.46;101613.94;5163008;28;20332;-86
2022/11/30 00:03:18;;;;;;;5.10;3.05;;;;;;;7.76;81.45;101602.66;5166609;28;20093;-87
2022/11/30 00:05:48;;;;;;;9.77;6.15;;;;;;;7.83;81.12;101610.47;5181062;28;20026;-86
2022/11/30 00:08:19;;;;;;;2.92;2.72;;;;;;;7.74;81.39;101613.06;5163453;28;20518;-86
2022/11/30 00:10:49;;;;;;;3.92;3.65;;;;;;;7.73;81.56;101608.72;5178843;28;20069;-86
2022/11/30 00:13:20;;;;;;;3.95;3.60;;;;;;;7.75;82.01;101606.97;5179351;28;20046;-86
2022/11/30 00:15:50;;;;;;;6.35;5.72;;;;;;;7.79;81.51;101610.47;5149706;28;20033;-86
2022/11/30 00:18:20;;;;;;;6.70;4.75;;;;;;;7.80;81.32;101615.72;5131964;28;20037;-85
2022/11/30 00:20:51;;;;;;;5.97;3.38;;;;;;;7.76;81.12;101608.72;5132053;28;20425;-85
2022/11/30 00:23:21;;;;;;;4.88;3.63;;;;;;;7.74;81.85;101613.06;5165873;28;20040;-87
2022/11/30 00:25:52;;;;;;;17.08;4.85;;;;;;;7.77;81.51;101605.25;5149839;28;20251;-86
2022/11/30 00:28:22;;;;;;;4.05;3.75;;;;;;;7.81;81.38;101599.13;5145369;28;20164;-87
2022/11/30 00:30:57;;;;;;;2.60;2.50;;;;;;;7.74;82.64;101605.25;5163050;28;20030;-86
2022/11/30 00:33:31;;;;;;;6.35;5.13;;;;;;;7.60;83.12;101599.16;5179248;28;20046;-86
2022/11/30 00:36:05;;;;;;;7.05;3.47;;;;;;;7.73;82.97;101598.28;5151455;28;20022;-86
2022/11/30 00:38:35;;;;;;;7.57;3.47;;;;;;;7.74;82.08;101605.25;5181649;28;20112;-86
2022/11/30 00:41:06;;;;;;;4.97;4.57;;;;;;;7.71;82.15;101600.03;5162752;28;20031;-86
2022/11/30 00:43:36;;;;;;;6.50;4.40;;;;;;;7.77;81.79;101600.03;5151464;28;20693;-86
2022/11/30 00:46:10;;;;;;;2.97;2.80;;;;;;;7.74;81.86;101600.00;5166376;28;20134;-86
2022/11/30 00:48:40;;;;;;;11.25;6.75;;;;;;;7.76;82.17;101606.13;5165799;28;20288;-86
2022/11/30 00:51:11;;;;;;;3.88;3.58;;;;;;;7.91;82.02;101609.56;5163135;28;20056;-85
2022/11/30 00:53:42;;;;;;;3.70;3.40;;;;;;;7.81;81.85;101612.19;5164046;28;20054;-87
2022/11/30 00:56:13;;;;;;;3.60;3.33;;;;;;;7.81;82.24;101608.72;5170643;28;20038;-85
2022/11/30 00:58:43;;;;;;;7.88;4.95;;;;;;;7.75;82.32;101612.22;5135788;28;20153;-86
2022/11/30 01:01:14;;;;;;;11.60;6.28;;;;;;;7.79;82.50;101603.50;5164021;28;20065;-86
2022/11/30 01:03:44;;;;;;;3.72;3.22;;;;;;;7.81;81.90;101604.34;5165655;28;20097;-86
2022/11/30 01:06:15;;;;;;;7.28;5.18;;;;;;;7.80;81.99;101610.47;5137303;28;20120;-86
2022/11/30 01:08:46;;;;;;;7.40;5.25;;;;;;;7.79;82.25;101608.75;5163723;28;20046;-85
2022/11/30 01:11:22;;;;;;;12.82;4.45;;;;;;;7.77;83.03;101607.84;5179744;28;20030;-86
2022/11/30 01:13:54;;;;;;;10.13;6.78;;;;;;;7.79;82.51;101608.75;5181720;28;20049;-85
2022/11/30 01:16:28;;;;;;;2.83;2.63;;;;;;;7.78;82.77;101620.06;5158210;28;20030;-86
2022/11/30 01:18:59;;;;;;;6.30;3.90;;;;;;;7.86;81.94;101609.56;5146270;28;20098;-86
2022/11/30 01:21:29;;;;;;;3.72;3.42;;;;;;;7.82;82.21;101613.09;5163716;28;20065;-85
2022/11/30 01:24:00;;;;;;;4.45;2.20;;;;;;;7.80;82.65;101605.25;5171433;28;20041;-85
2022/11/30 01:26:30;;;;;;;3.20;2.97;;;;;;;7.75;83.66;101614.81;5171560;28;20228;-86
2022/11/30 01:29:01;;;;;;;12.48;3.80;;;;;;;7.85;83.29;101608.72;5146385;28;20271;-86
2022/11/30 01:31:31;;;;;;;6.35;3.53;;;;;;;7.54;85.12;101613.97;5162464;28;20030;-86
2022/11/30 01:34:02;;;;;;;4.32;2.60;;;;;;;7.61;84.80;101616.59;5182464;28;20050;-85
2022/11/30 01:36:32;;;;;;;2.53;2.33;;;;;;;7.65;84.27;101615.69;5160523;28;20030;-86
2022/11/30 01:39:06;;;;;;;3.05;2.78;;;;;;;7.67;84.32;101616.56;5139394;28;20038;-85
2022/11/30 01:41:37;;;;;;;2.03;1.90;;;;;;;7.71;84.08;101615.72;5165048;28;20034;-87
2022/11/30 01:44:11;;;;;;;3.85;2.95;;;;;;;7.75;83.96;101616.56;5165362;28;20569;-87
2022/11/30 01:47:03;;;;;;;2.72;2.53;;;;;;;7.66;84.74;101612.22;5135168;28;20049;-86
2022/11/30 01:49:43;;;;;;;2.28;2.15;;;;;;;7.65;85.15;101618.31;5147163;28;20053;-86
2022/11/30 01:52:15;;;;;;;2.22;2.13;;;;;;;7.74;84.32;101615.69;5156905;28;20026;-86
2022/11/30 01:54:52;;;;;;;2.47;2.38;;;;;;;7.67;85.06;101622.69;5178202;28;20037;-85
2022/11/30 01:57:34;;;;;;;2.50;2.30;;;;;;;7.64;85.17;101617.44;5158680;28;20054;-85
2022/11/30 02:00:09;;;;;;;2.35;2.25;;;;;;;7.65;84.44;101623.53;5179211;28;20425;-86
2022/11/30 02:03:02;;;;;;;5.95;3.55;;;;;;;7.67;83.99;101620.06;5164243;28;20041;-85
2022/11/30 02:05:35;;;;;;;3.92;1.55;;;;;;;7.70;83.67;101620.03;5163175;28;20042;-85
2022/11/30 02:08:06;;;;;;;;;;;;;;;7.74;83.67;101623.53;5160084;28;20038;-85
2022/11/30 02:10:46;;;;;;;3.15;2.85;;;;;;;7.73;83.60;101619.16;5161108;28;20150;-84
2022/11/30 02:13:57;;;;;;;8.60;3.35;;;;;;;7.76;83.41;101618.31;5165519;28;20042;-86
2022/11/30 02:16:43;;;;;;;6.55;5.38;;;;;;;7.63;84.14;101625.28;5165354;28;20730;-83
2022/11/30 02:19:42;;;;;;;1.75;1.65;;;;;;;7.66;84.21;101625.28;5178244;28;20403;-86
2022/11/30 02:22:35;;;;;;;2.88;2.63;;;;;;;7.69;84.90;101622.66;5160171;28;20158;-85
2022/11/30 02:25:09;;;;;;;3.28;3.03;;;;;;;7.50;85.64;101620.06;5161851;28;20527;-86
2022/11/30 02:28:16;;;;;;;4.75;2.67;;;;;;;7.56;85.04;101620.03;5130342;28;20250;-86
2022/11/30 02:30:51;;;;;;;4.45;4.10;;;;;;;7.51;85.80;101613.09;5174169;28;20033;-85
2022/11/30 02:33:26;;;;;;;2.45;2.33;;;;;;;7.62;84.31;101613.97;5151421;28;20042;-86
2022/11/30 02:35:59;;;;;;;5.22;4.72;;;;;;;7.71;84.20;101607.88;5142755;28;20137;-86
2022/11/30 02:38:30;;;;;;;7.70;5.40;;;;;;;7.65;84.63;101605.25;5145122;28;20041;-86
2022/11/30 02:41:02;;;;;;;6.63;5.53;;;;;;;7.69;84.09;101612.22;5165397;28;20049;-86
2022/11/30 02:43:34;;;;;;;3.95;3.10;;;;;;;7.69;84.07;101604.38;5182509;28;20082;-85
2022/11/30 02:46:10;;;;;;;3.25;2.95;;;;;;;7.72;84.48;101604.41;5151258;28;20023;-85
2022/11/30 02:49:18;;;;;;;3.95;3.65;;;;;;;7.78;84.16;101600.88;5127105;28;20500;-85
2022/11/30 02:51:51;;;;;;;5.10;4.70;;;;;;;7.83;83.27;101602.63;5144588;28;20030;-85
2022/11/30 02:54:22;;;;;;;7.15;3.13;;;;;;;7.76;84.07;101605.25;5161441;28;20182;-87
2022/11/30 02:56:52;;;;;;;2.47;2.13;;;;;;;7.72;83.79;101607.00;5164798;28;20096;-86
2022/11/30 02:59:23;;;;;;;5.15;3.97;;;;;;;7.74;83.61;101612.22;5181813;28;20608;-86
2022/11/30 03:01:54;;;;;;;3.38;2.83;;;;;;;7.80;83.37;101600.03;5176787;28;20598;-85
2022/11/30 03:04:24;;;;;;;5.55;4.95;;;;;;;7.79;84.15;101602.63;5150320;28;20042;-86
2022/11/30 03:06:55;;;;;;;3.00;2.80;;;;;;;7.79;84.05;101600.91;5147653;28;20518;-85
2022/11/30 03:09:25;;;;;;;3.17;2.95;;;;;;;7.79;83.89;101603.50;5160231;28;20177;-86
2022/11/30 03:11:55;;;;;;;4.38;3.95;;;;;;;7.64;85.77;101606.16;5160014;28;20057;-86
2022/11/30 03:14:26;;;;;;;6.95;3.92;;;;;;;7.57;86.31;101606.13;5145673;28;20069;-86
2022/11/30 03:16:56;;;;;;;4.25;3.85;;;;;;;7.51;86.93;101608.75;5143951;28;20502;-85
2022/11/30 03:19:27;;;;;;;2.40;2.30;;;;;;;7.61;86.43;101611.34;5128348;28;20475;-86
2022/11/30 03:21:58;;;;;;;3.10;2.63;;;;;;;7.83;84.80;101605.22;5179024;28;20085;-85
2022/11/30 03:24:30;;;;;;;1.80;1.70;;;;;;;7.68;84.70;101607.88;5155973;28;20037;-85
2022/11/30 03:27:01;;;;;;;3.63;3.28;;;;;;;7.67;85.06;101609.63;5147730;28;20045;-85
2022/11/30 03:29:31;;;;;;;4.40;3.78;;;;;;;7.49;86.96;101610.47;5190023;28;20034;-86
2022/11/30 03:32:02;;;;;;;5.13;4.60;;;;;;;7.52;87.32;101602.66;5173380;28;20077;-85
2022/11/30 03:34:33;;;;;;;6.05;4.57;;;;;;;7.65;85.79;101610.47;5190014;28;20030;-86
2022/11/30 03:37:03;;;;;;;3.65;3.33;;;;;;;7.68;85.42;101613.09;5148026;28;20034;-85
2022/11/30 03:39:33;;;;;;;4.43;4.03;;;;;;;7.71;85.30;101616.56;5160958;28;20042;-86
2022/11/30 03:42:04;;;;;;;2.47;1.50;;;;;;;7.54;86.63;101618.31;5160849;28;20080;-86
2022/11/30 03:44:34;;;;;;;5.53;4.28;;;;;;;7.63;86.69;101620.06;5136626;28;20494;-86
2022/11/30 03:47:05;;;;;;;3.63;2.13;;;;;;;7.55;86.79;101620.06;5169948;28;20045;-86
2022/11/30 03:49:35;;;;;;;6.47;2.65;;;;;;;7.60;86.66;101623.56;5166465;28;20049;-86
2022/11/30 03:52:06;;;;;;;6.28;3.78;;;;;;;7.51;87.45;101619.19;5179327;28;20030;-87
2022/11/30 03:54:36;;;;;;;3.40;3.10;;;;;;;7.56;86.79;101627.88;5166073;28;20156;-85
2022/11/30 03:57:07;;;;;;;1.95;1.85;;;;;;;7.59;86.48;101629.66;5147352;28;20034;-85
2022/11/30 03:59:37;;;;;;;3.95;3.58;;;;;;;7.52;86.70;101622.69;5179654;28;20039;-85
2022/11/30 04:02:08;;;;;;;5.38;2.45;;;;;;;7.55;86.70;101626.16;5146417;28;20176;-86
2022/11/30 04:04:38;;;;;;;3.20;2.85;;;;;;;7.68;85.48;101626.16;5149342;28;20428;-85
2022/11/30 04:07:09;;;;;;;1.73;1.65;;;;;;;7.60;85.31;101630.50;5171851;28;20145;-85
2022/11/30 04:09:39;;;;;;;1.85;1.75;;;;;;;7.52;85.58;101631.38;5135846;28;20323;-86
2022/11/30 04:12:09;;;;;;;2.35;2.15;;;;;;;7.69;84.55;101638.34;5178235;28;20093;-85
2022/11/30 04:14:40;;;;;;;1.90;1.80;;;;;;;7.60;84.46;101635.72;5150527;28;20108;-86
2022/11/30 04:17:10;;;;;;;2.95;2.75;;;;;;;7.56;84.68;101642.69;5164204;28;20069;-86
2022/11/30 04:19:41;;;;;;;4.97;4.05;;;;;;;7.66;84.29;101633.09;5131587;28;20034;-86
2022/11/30 04:22:11;;;;;;;1.98;1.88;;;;;;;7.59;84.68;101641.81;5165663;28;20061;-86
2022/11/30 04:24:42;;;;;;;3.92;3.63;;;;;;;7.56;84.52;101640.94;5145731;28;20335;-87
2022/11/30 04:27:12;;;;;;;5.18;2.55;;;;;;;7.56;84.23;101638.34;5165574;28;20030;-86
2022/11/30 04:29:43;;;;;;;2.25;2.10;;;;;;;7.67;83.64;101634.84;5146531;28;20057;-86
2022/11/30 04:32:13;;;;;;;2.83;2.13;;;;;;;7.59;83.88;101642.72;5159956;28;20097;-85
2022/11/30 04:34:43;;;;;;;1.75;1.65;;;;;;;7.49;84.17;101641.81;5166981;28;20039;-86
2022/11/30 04:37:14;;;;;;;4.85;3.25;;;;;;;7.60;84.31;101639.22;5150411;28;20578;-86
2022/11/30 04:39:44;;;;;;;2.45;2.25;;;;;;;7.55;84.28;101652.28;5140937;28;20026;-86
2022/11/30 04:42:15;;;;;;;1.83;1.73;;;;;;;7.71;83.96;101652.28;5164985;28;20036;-85
2022/11/30 04:44:46;;;;;;;1.98;1.88;;;;;;;7.66;83.56;101643.56;5168459;28;20029;-85
2022/11/30 04:47:16;;;;;;;2.85;2.65;;;;;;;7.64;83.65;101646.19;5167343;28;20034;-85
2022/11/30 04:49:47;;;;;;;5.93;2.95;;;;;;;7.71;84.00;101652.28;5166744;28;20053;-86
2022/11/30 04:52:17;;;;;;;3.63;2.78;;;;;;;7.68;83.43;101647.03;5161349;28;20042;-85
2022/11/30 04:54:48;;;;;;;1.83;1.15;;;;;;;7.56;84.30;101659.22;5177984;28;20046;-85
2022/11/30 04:57:18;;;;;;;1.60;1.50;;;;;;;7.45;84.71;101650.53;5163460;28;20061;-86
2022/11/30 04:59:49;;;;;;;2.90;2.47;;;;;;;7.42;84.67;101655.75;5145106;28;20265;-85
2022/11/30 05:02:19;;;;;;;1.33;1.33;;;;;;;7.44;84.29;101655.75;5159933;28;20048;-85
2022/11/30 05:04:50;;;;;;;2.42;2.33;;;;;;;7.47;83.85;101654.03;5165416;28;20034;-86
2022/11/30 05:07:20;;;;;;;2.22;2.10;;;;;;;7.52;84.07;101649.66;5167051;28;20108;-86
2022/11/30 05:09:51;;;;;;;2.72;2.55;;;;;;;7.52;83.78;101654.88;5161212;28;20161;-85
2022/11/30 05:12:21;;;;;;;3.58;2.50;;;;;;;7.54;83.68;101658.38;5163286;28;20124;-86
2022/11/30 05:14:51;;;;;;;5.00;3.40;;;;;;;7.55;82.92;101660.13;5132722;28;20033;-86
2022/11/30 05:17:22;;;;;;;3.38;1.80;;;;;;;7.49;83.51;101657.47;5134252;28;20038;-84
2022/11/30 05:19:53;;;;;;;1.55;1.45;;;;;;;7.43;84.30;101656.63;5180764;28;20033;-85
2022/11/30 05:22:23;;;;;;;1.95;1.85;;;;;;;7.33;83.75;101653.13;5165375;28;20030;-84
2022/11/30 05:24:54;;;;;;;2.45;2.35;;;;;;;7.42;83.59;101655.75;5179646;28;20378;-85
2022/11/30 05:27:24;;;;;;;2.00;1.80;;;;;;;7.45;83.39;101660.09;5167038;28;20041;-85
2022/11/30 05:29:54;;;;;;;2.78;2.58;;;;;;;7.35;83.73;101656.59;5163858;28;20022;-85
2022/11/30 05:32:25;;;;;;;5.03;3.92;;;;;;;7.31;83.64;101660.94;5166723;28;20042;-85
2022/11/30 05:34:55;;;;;;;1.67;1.52;;;;;;;7.27;83.88;101671.38;5162111;28;20022;-85
2022/11/30 05:37:26;;;;;;;2.03;1.92;;;;;;;7.34;83.02;101678.34;5149388;28;20101;-87
2022/11/30 05:39:56;;;;;;;2.90;2.75;;;;;;;7.42;82.54;101670.56;5145209;28;20113;-85
2022/11/30 05:42:27;;;;;;;2.10;1.98;;;;;;;7.35;82.75;101669.66;5150460;28;20027;-85
2022/11/30 05:44:57;;;;;;;2.10;2.00;;;;;;;7.27;82.82;101666.16;5134830;28;20030;-85
2022/11/30 05:47:28;;;;;;;3.40;3.13;;;;;;;7.32;82.86;101669.66;5161022;28;20041;-85
2022/11/30 05:49:58;;;;;;;3.10;2.63;;;;;;;7.45;82.66;101671.41;5144932;28;20321;-81
2022/11/30 05:52:29;;;;;;;2.35;2.25;;;;;;;7.37;82.66;101670.53;5136233;28;20036;-83
2022/11/30 05:54:59;;;;;;;4.22;1.83;;;;;;;7.43;82.60;101678.38;5150844;28;20393;-82
2022/11/30 05:57:29;;;;;;;2.17;1.58;;;;;;;7.25;82.92;101682.69;5166604;28;20026;-82
2022/11/30 06:00:00;;;;;;;2.28;1.90;;;;;;;7.27;82.67;101682.72;5183661;28;20101;-82
2022/11/30 06:02:30;;;;;;;2.60;2.40;;;;;;;7.23;82.23;101686.16;5169861;28;20037;-84
2022/11/30 06:05:01;;;;;;;3.35;3.05;;;;;;;7.19;82.73;101685.28;5166939;28;20084;-82
2022/11/30 06:07:31;;;;;;;4.00;3.17;;;;;;;7.21;82.81;101687.91;5165325;28;20104;-82
2022/11/30 06:10:03;;;;;;;1.08;1.08;;;;;;;7.19;82.69;101695.72;5182948;28;20069;-82
2022/11/30 06:12:33;;;;;;;1.00;1.00;;;;;;;7.19;82.96;101694.88;5142534;28;20157;-82
2022/11/30 06:15:04;;;;;;;2.17;2.08;;;;;;;7.28;82.47;101694.03;5176742;28;20737;-81
2022/11/30 06:17:36;;;;;;;4.22;2.85;;;;;;;7.27;82.30;101687.03;5178103;28;20119;-83
2022/11/30 06:20:07;;;;;;;1.98;1.88;;;;;;;7.30;82.35;101687.94;5179712;28;20419;-82
2022/11/30 06:22:38;;;;;;;1.02;1.02;;;;;;;7.22;82.37;101684.44;5162170;28;20174;-82
2022/11/30 06:25:08;;;;;;;1.83;1.73;;;;;;;7.22;82.67;101687.03;5166740;28;20034;-81
2022/11/30 06:27:38;;;;;;;1.35;1.35;;;;;;;7.23;82.70;101684.41;5164957;28;20442;-81
2022/11/30 06:30:10;;;;;;;2.75;2.55;;;;;;;7.31;82.59;101689.66;5145769;28;20096;-82
2022/11/30 06:32:44;;;;;;;2.78;2.67;;;;;;;7.23;82.70;101687.03;5163033;28;20038;-82
2022/11/30 06:35:15;;;;;;;3.33;1.92;;;;;;;7.30;82.54;101687.06;5150245;28;20030;-83
2022/11/30 06:37:45;;;;;;;3.72;3.42;;;;;;;7.21;82.26;101688.78;5147453;28;20042;-82
2022/11/30 06:40:16;;;;;;;3.00;2.80;;;;;;;7.35;81.48;101690.53;5145757;28;20586;-81
2022/11/30 06:42:46;;;;;;;1.83;1.60;;;;;;;7.00;83.34;101691.31;5163659;28;20038;-82
2022/11/30 06:45:17;;;;;;;2.15;2.00;;;;;;;7.25;82.47;101689.66;5182549;28;20030;-82
2022/11/30 06:47:47;;;;;;;2.35;2.25;;;;;;;7.25;81.47;101690.53;5162288;28;20042;-83
2022/11/30 06:50:18;;;;;;;2.75;2.55;;;;;;;7.22;81.97;101690.53;5179303;28;20037;-83
2022/11/30 06:52:48;;;;;;;1.67;1.60;;;;;;;7.39;82.09;101698.38;5180891;28;20095;-84
2022/11/30 06:55:19;;;;;;;2.78;2.58;;;;;;;7.39;81.76;101697.53;5166306;28;20053;-83
2022/11/30 06:57:49;;;;;;;2.03;1.92;;;;;;;7.29;81.67;101698.38;5164679;28;20050;-83
2022/11/30 07:00:20;;;;;;;2.00;1.90;;;;;;;7.20;82.03;101699.19;5165766;28;20026;-82
2022/11/30 07:02:50;;;;;;;2.55;2.35;;;;;;;7.42;81.51;101705.34;5127168;28;20042;-84
2022/11/30 07:05:21;;;;;;;3.55;2.95;;;;;;;7.24;81.64;101696.59;5166409;28;20229;-81
2022/11/30 07:07:51;;;;;;;2.30;2.13;;;;;;;7.30;80.80;101700.13;5185797;28;20046;-81
2022/11/30 07:10:22;;;;;;;2.50;2.30;;;;;;;7.18;82.03;101704.44;5139642;28;20049;-81
2022/11/30 07:12:52;;;;;;;2.53;2.33;;;;;;;7.13;82.16;101705.28;5158680;28;20089;-82
2022/11/30 07:15:23;;;;;;;0.95;0.95;;;;;;;7.09;82.53;101707.00;5139691;28;20220;-83
2022/11/30 07:17:54;;;;;;;1.75;1.65;;;;;;;7.07;82.11;101711.34;5159263;28;20042;-83
2022/11/30 07:20:24;;;;;;;1.85;1.75;;;;;;;7.03;82.61;101705.25;5162260;28;20335;-83
2022/11/30 07:22:55;;;;;;;2.17;1.85;;;;;;;7.06;82.33;101715.72;5148241;28;20069;-83
2022/11/30 07:28:14;;;;;;;1.38;1.38;;;;;;;6.91;82.85;101716.50;5179069;28;20053;-82
2022/11/30 07:30:45;;;;;;;1.85;1.75;;;;;;;7.01;82.79;101719.16;5164071;28;20030;-82
2022/11/30 07:33:15;;;;;;;1.73;1.63;;;;;;;7.02;82.56;101723.50;5163331;28;20531;-83
2022/11/30 07:35:46;;;;;;;3.85;2.33;;;;;;;7.09;82.46;101726.16;5177381;28;20023;-83
2022/11/30 07:38:16;;;;;;;3.33;3.05;;;;;;;7.09;81.81;101722.66;5133950;28;20228;-82
2022/11/30 07:40:47;;;;;;;3.05;2.10;;;;;;;7.07;81.53;101737.44;5136734;28;20040;-83
2022/11/30 07:43:17;;;;;;;3.25;2.97;;;;;;;7.04;81.43;101729.63;5166418;28;20179;-83
2022/11/30 07:45:54;;;;;;;4.82;3.25;;;;;;;6.95;81.83;101742.63;5180656;28;20263;-81
2022/11/30 07:48:25;;;;;;;2.22;2.10;;;;;;;6.96;82.10;101744.38;5155759;28;20038;-81
2022/11/30 07:51:08;;;;;;;2.70;2.47;;;;;;;7.06;81.57;101747.03;5176799;28;20094;-81
2022/11/30 07:53:39;;;;;;;3.67;2.30;;;;;;;6.96;81.08;101750.44;5145557;28;20034;-81
2022/11/30 07:56:12;;;;;;;2.75;2.55;;;;;;;7.09;81.01;101751.38;5142707;28;20064;-84
2022/11/30 07:58:43;;;;;;;1.35;1.33;;;;;;;6.98;80.75;101750.47;5159140;28;20030;-84
2022/11/30 08:01:17;;;;;;;1.67;1.58;;;;;;;6.89;81.44;101744.34;5143002;28;20115;-82
2022/11/30 08:03:47;;;;;;;;;;;;;;;6.84;82.01;101743.44;5160038;28;20579;-82
2022/11/30 08:06:21;;;;;;;3.13;2.15;;;;;;;6.94;81.58;101747.00;5177656;28;20067;-82
2022/11/30 08:08:53;;;;;;;1.70;1.60;;;;;;;6.92;81.96;101753.94;5175807;28;20509;-83
2022/11/30 08:11:26;;;;;;;2.22;1.70;;;;;;;6.89;81.03;101754.78;5162986;28;20212;-83
2022/11/30 08:13:57;;;;;;;11.10;10.25;;;;;;;6.90;81.39;101756.50;5160893;28;20658;-83
2022/11/30 08:16:29;;;;;;;4.97;4.53;;;;;;;6.95;81.68;101758.28;5164915;28;20240;-82
2022/11/30 08:19:00;;;;;;;5.63;3.20;;;;;;;6.95;81.13;101753.91;5146871;28;20502;-82
2022/11/30 08:21:33;;;;;;;3.33;3.08;;;;;;;6.81;81.30;101755.59;5149853;28;20025;-83
2022/11/30 08:24:04;;;;;;;1.52;1.45;;;;;;;6.82;81.79;101763.41;5159430;28;20217;-81
2022/11/30 08:26:34;;;;;;;1.67;1.58;;;;;;;6.83;81.80;101759.94;5179471;28;20390;-82
2022/11/30 08:29:05;;;;;;;2.38;2.17;;;;;;;6.86;81.81;101770.41;5176643;28;20278;-81
2022/11/30 08:31:36;;;;;;;2.83;2.55;;;;;;;6.82;81.65;101776.47;5139247;28;20029;-82
2022/11/30 08:34:09;;;;;;;3.25;2.95;;;;;;;6.88;81.48;101763.47;5143057;28;20038;-82
2022/11/30 08:36:40;;;;;;;5.63;2.92;;;;;;;6.94;81.13;101778.28;5161965;28;20026;-82
2022/11/30 08:39:11;;;;;;;1.98;1.85;;;;;;;6.68;81.63;101776.41;5142052;28;20471;-83
2022/11/30 08:41:42;;;;;;;0.85;0.85;;;;;;;6.64;82.13;101776.38;5138632;28;20100;-81
2022/11/30 08:44:12;;;;;;;2.10;2.00;;;;;;;6.72;82.18;101787.72;5164444;28;20038;-81
2022/11/30 08:46:43;;;;;;;1.90;1.80;;;;;;;6.77;82.39;101786.91;5161063;28;20060;-83
2022/11/30 08:49:13;;;;;;;6.57;3.17;;;;;;;6.61;82.60;101780.72;5142991;28;20111;-82
2022/11/30 08:51:44;;;;;;;2.35;2.03;;;;;;;6.43;83.03;101786.69;5141389;28;20492;-83
2022/11/30 08:54:14;;;;;;;3.35;2.22;;;;;;;6.59;82.79;101785.03;5145589;28;20274;-83
2022/11/30 08:56:44;;;;;;;20.65;4.18;;;;;;;6.72;82.29;101779.91;5142326;28;20030;-81
2022/11/30 08:59:15;;;;;;;4.05;2.40;;;;;;;6.67;82.25;101784.22;5159108;28;20382;-82
2022/11/30 09:01:45;;;;;;;1.15;1.15;;;;;;;6.59;83.00;101781.56;5165913;28;20042;-81
2022/11/30 09:04:16;;;;;;;0.80;0.80;;;;;;;6.61;82.69;101793.75;5172034;28;20122;-81
2022/11/30 09:06:46;;;;;;;2.20;2.10;;;;;;;6.70;82.59;101789.44;5170962;28;20248;-80
2022/11/30 09:09:17;;;;;;;2.03;1.92;;;;;;;6.64;82.76;101795.50;5162075;28;20512;-81
2022/11/30 09:11:47;;;;;;;2.53;2.33;;;;;;;6.63;83.63;101793.75;5179687;28;20060;-81
2022/11/30 09:14:18;;;;;;;2.00;1.90;;;;;;;6.77;83.17;101801.66;5165239;28;20057;-83
2022/11/30 09:16:48;;;;;;;1.40;1.30;;;;;;;6.78;82.14;101804.28;5152333;28;20061;-81
2022/11/30 09:19:19;;;;;;;2.92;2.40;;;;;;;6.84;82.11;101802.59;5178897;28;20091;-81
2022/11/30 09:21:49;;;;;;;2.85;2.65;;;;;;;6.81;82.20;101802.56;5149268;28;20127;-81
2022/11/30 09:24:20;;;;;;;3.28;3.05;;;;;;;6.81;82.80;101795.63;5159485;28;20038;-81
2022/11/30 09:26:54;;;;;;;2.63;2.42;;;;;;;6.74;82.49;101804.25;5159639;28;20122;-80
2022/11/30 09:29:24;;;;;;;1.52;1.42;;;;;;;6.75;82.61;101799.06;5156544;28;20044;-80
2022/11/30 09:31:54;;;;;;;1.65;1.55;;;;;;;6.85;82.09;101807.81;5157488;28;20030;-82
2022/11/30 09:34:25;;;;;;;4.63;3.10;;;;;;;6.84;82.22;101806.06;5158015;28;20046;-82
2022/11/30 09:36:55;;;;;;;3.13;2.92;;;;;;;6.73;82.90;101805.13;5155191;28;20089;-81
2022/11/30 09:39:26;;;;;;;1.90;1.80;;;;;;;6.85;81.92;101809.56;5153808;28;20042;-82
2022/11/30 09:42:23;;;;;;;0.95;0.95;;;;;;;6.83;82.16;101808.66;5143947;28;20715;-80
2022/11/30 09:45:16;;;;;;;1.55;1.42;;;;;;;6.76;82.60;101802.53;5144547;28;20065;-81
2022/11/30 09:48:29;;;;;;;2.85;2.58;;;;;;;6.89;82.59;101806.09;5158661;28;20058;-80
2022/11/30 09:51:09;;;;;;;1.65;1.55;;;;;;;6.95;81.52;101800.03;5089753;29;20369;-82
2022/11/30 09:53:43;;;;;;;13.63;12.50;;;;;;;6.92;82.16;101798.28;5143694;28;20057;-82
2022/11/30 09:56:23;;;;;;;5.70;4.00;;;;;;;7.02;81.08;101807.03;5139636;28;20348;-83
2022/11/30 09:58:59;;;;;;;2.65;2.45;;;;;;;6.98;80.99;101803.53;5157897;28;20074;-82
2022/11/30 10:01:29;;;;;;;1.85;1.75;;;;;;;6.90;81.92;101806.06;5135306;28;20034;-82
2022/11/30 10:04:01;;;;;;;2.28;1.48;;;;;;;6.87;82.03;101806.09;5140342;28;20050;-81
2022/11/30 10:06:48;;;;;;;4.88;1.92;;;;;;;6.95;81.65;101811.31;5157136;28;20431;-82
2022/11/30 10:09:32;;;;;;;2.88;2.67;;;;;;;7.12;80.96;101811.44;5137031;28;20038;-83
2022/11/30 10:12:29;;;;;;;2.97;2.78;;;;;;;6.98;81.80;101810.50;5158793;28;20384;-82
2022/11/30 10:15:22;;;;;;;2.55;2.35;;;;;;;6.91;81.85;101810.44;5161511;28;20484;-82
2022/11/30 10:18:01;;;;;;;1.42;1.35;;;;;;;6.89;82.19;101816.50;5155857;28;20407;-82
2022/11/30 10:20:41;;;;;;;2.55;2.28;;;;;;;6.96;81.53;101804.38;5172847;28;20042;-83
2022/11/30 10:23:27;;;;;;;2.63;2.10;;;;;;;6.87;81.78;101808.69;5177210;28;20040;-81
2022/11/30 10:26:04;;;;;;;2.78;2.58;;;;;;;7.14;80.76;101809.72;5156214;28;20319;-82
2022/11/30 10:28:57;;;;;;;2.15;1.92;;;;;;;7.08;80.66;101796.59;5157147;28;20046;-82
2022/11/30 10:31:35;;;;;;;3.05;2.85;;;;;;;6.95;81.08;101802.63;5129392;28;20040;-83
2022/11/30 10:34:33;;;;;;;2.55;2.35;;;;;;;7.06;81.26;101798.34;5171174;28;20045;-83
2022/11/30 10:37:07;;;;;;;1.55;1.45;;;;;;;7.04;80.72;101802.69;5161299;28;20054;-83
2022/11/30 10:39:56;;;;;;;4.82;4.43;;;;;;;6.91;81.36;101794.78;5153517;28;20669;-83
2022/11/30 10:42:38;;;;;;;4.82;2.95;;;;;;;6.91;81.70;101796.53;5155317;28;20033;-83
2022/11/30 10:45:12;;;;;;;2.45;2.25;;;;;;;6.83;81.93;101793.88;5157483;28;20077;-83
2022/11/30 10:48:15;;;;;;;5.55;3.97;;;;;;;6.86;81.79;101795.66;5157698;28;20061;-83
2022/11/30 10:50:46;;;;;;;3.30;3.08;;;;;;;6.84;82.13;101793.00;5153894;28;20264;-82
2022/11/30 10:53:17;;;;;;;4.32;3.38;;;;;;;6.96;81.51;101791.34;5154572;28;20126;-81
2022/11/30 10:56:00;;;;;;;3.78;2.47;;;;;;;6.92;81.63;101783.47;5160837;28;20137;-81
2022/11/30 10:58:58;;;;;;;3.00;2.83;;;;;;;6.92;81.77;101790.47;5151495;28;20038;-82
2022/11/30 11:01:38;;;;;;;2.15;2.00;;;;;;;6.94;81.23;101786.13;5154779;28;20042;-83
2022/11/30 11:04:12;;;;;;;3.85;3.65;;;;;;;6.85;82.42;101778.25;5141626;28;20046;-83
2022/11/30 11:06:50;;;;;;;4.43;4.10;;;;;;;6.90;81.87;101785.22;5160702;28;20056;-82
2022/11/30 11:09:38;;;;;;;2.38;2.22;;;;;;;6.98;81.28;101781.78;5155528;28;20034;-82
2022/11/30 11:12:23;;;;;;;1.75;1.65;;;;;;;7.15;80.66;101781.84;5155921;28;20089;-83
2022/11/30 11:15:07;;;;;;;2.88;2.67;;;;;;;7.03;81.36;101782.69;5170009;28;20022;-83
2022/11/30 11:17:38;;;;;;;4.82;3.08;;;;;;;7.01;80.84;101779.19;5153615;28;20042;-82
2022/11/30 11:20:27;;;;;;;1.92;1.80;;;;;;;6.98;81.49;101787.00;5139817;28;20369;-81
2022/11/30 11:22:58;;;;;;;1.45;1.45;;;;;;;7.12;81.51;101780.09;5155329;28;20098;-83
2022/11/30 11:25:28;;;;;;;2.42;2.30;;;;;;;7.06;81.31;101782.69;5157667;28;20033;-82
2022/11/30 11:28:07;;;;;;;3.90;3.60;;;;;;;7.07;81.44;101787.03;5156421;28;20049;-81
2022/11/30 11:30:38;;;;;;;2.70;1.60;;;;;;;7.06;81.23;101790.53;5171263;28;20026;-83
2022/11/30 11:33:12;;;;;;;1.95;1.85;;;;;;;7.28;80.69;101788.00;5157205;28;20049;-82
2022/11/30 11:35:51;;;;;;;1.02;1.00;;;;;;;7.09;81.24;101790.53;5158504;28;20100;-82
2022/11/30 11:38:29;;;;;;;2.25;2.08;;;;;;;7.05;81.64;101786.16;5150402;28;20591;-83
2022/11/30 11:41:10;;;;;;;1.58;1.48;;;;;;;7.08;81.62;101788.78;5171347;28;20065;-82
2022/11/30 11:44:01;;;;;;;1.40;1.38;;;;;;;7.14;81.30;101788.81;5157246;28;20109;-82
2022/11/30 11:46:35;;;;;;;2.53;2.33;;;;;;;7.04;81.93;101787.88;5177269;28;20042;-82
2022/11/30 11:49:18;;;;;;;2.10;2.00;;;;;;;7.00;81.86;101788.75;5123222;28;20557;-82
2022/11/30 11:52:14;;;;;;;2.67;2.47;;;;;;;7.01;82.28;101793.13;5172224;28;20064;-83
2022/11/30 11:55:20;;;;;;;8.50;2.72;;;;;;;7.05;81.86;101792.25;5170784;28;20034;-82
2022/11/30 11:57:59;;;;;;;1.70;1.60;;;;;;;7.06;81.71;101793.13;5146894;28;20331;-83
2022/11/30 12:00:30;;;;;;;2.20;2.05;;;;;;;7.05;81.79;101794.00;5157752;28;20196;-81
2022/11/30 12:03:22;;;;;;;3.72;3.42;;;;;;;7.06;81.79;101793.13;5159329;28;20092;-82
2022/11/30 12:06:02;;;;;;;2.75;2.55;;;;;;;7.05;81.83;101791.38;5178966;28;20034;-82
2022/11/30 12:08:40;;;;;;;4.22;2.33;;;;;;;7.16;81.72;101797.50;5144439;28;20439;-83